Terminal Aerodrome Forecast
Issued by NWS

Home | Current Version | Previous Version | Graphics & Text | Print | Product List | Glossary On
Versions: 1 2 3 4 5 6 7 8 9 10 11 12 13 14
566
FTUS43 KGRB 161459 AAA
TAFCWA
TAF AMD
KCWA 161459Z 1615/1712 33008KT P6SM SCT012 SCT070
      TEMPO 1615/1617 BKN012
     FM161800 31008KT P6SM SCT020 BKN035
      TEMPO 1618/1620 BKN020
     FM162300 29005KT P6SM SCT250
     FM170700 27008KT P6SM BKN100=

USA.gov is the U.S. government's official web portal to all federal, state and local government web resources and services.